Hughesville, Missouri
Current Conditions -  °F | °C
As of 12:53 PM on Monday 20 Oct 2014 (Local Time) from KDMO Reporting Station
Clear Clear  
Wind Chill: 72°   Ceiling: Unl
Heat Index: 72°   Visibility: 10mi
Dew Point: 49°   Wind: 5mph
Humidity: 44%   Direction: 330°NNW
Pressure: 30.05"   Gusts: NA
Location:  38.84°N, 93.3°W
Report Text: KDMO 201753Z AUTO 33004KT 10SM CLR 22/09 A3005 RMK AO2 SLP172 T02220094 10222 20122 58001
Loading
Personal Weather Stations






























Interactive Weather Map
Tropical Storm Tracking
New forecast layout! Learn more

10-Day Weather Forecast

Advertisements
Track Severe Weather on mobile